sensor_id;sensor_type;location;lat;lon;timestamp;pressure;altitude;pressure_sealevel;temperature;humidity
57574;BME280;68988;49.000;21.242;2024-01-11T00:02:16;99749.53;;;22.77;31.89
57574;BME280;68988;49.000;21.242;2024-01-11T00:04:43;99751.38;;;22.77;31.97
57574;BME280;68988;49.000;21.242;2024-01-11T00:07:09;99740.69;;;22.77;31.91
57574;BME280;68988;49.000;21.242;2024-01-11T00:09:41;99749.16;;;22.74;31.98
57574;BME280;68988;49.000;21.242;2024-01-11T00:12:07;99741.16;;;22.74;31.92
57574;BME280;68988;49.000;21.242;2024-01-11T00:14:33;99746.63;;;22.79;31.70
57574;BME280;68988;49.000;21.242;2024-01-11T00:16:58;99743.59;;;22.75;32.08
57574;BME280;68988;49.000;21.242;2024-01-11T00:19:23;99738.25;;;22.75;31.66
57574;BME280;68988;49.000;21.242;2024-01-11T00:21:49;99737.44;;;22.75;31.82
57574;BME280;68988;49.000;21.242;2024-01-11T00:24:14;99733.72;;;22.76;31.80
57574;BME280;68988;49.000;21.242;2024-01-11T00:26:39;99733.59;;;22.70;31.91
57574;BME280;68988;49.000;21.242;2024-01-11T00:29:06;99732.09;;;22.75;31.66
57574;BME280;68988;49.000;21.242;2024-01-11T00:31:32;99740.22;;;22.80;31.63
57574;BME280;68988;49.000;21.242;2024-01-11T00:33:57;99732.09;;;22.75;31.55
57574;BME280;68988;49.000;21.242;2024-01-11T00:36:23;99730.22;;;22.75;31.79
57574;BME280;68988;49.000;21.242;2024-01-11T00:38:49;99726.75;;;22.75;31.55
57574;BME280;68988;49.000;21.242;2024-01-11T00:41:14;99730.00;;;22.77;31.64
57574;BME280;68988;49.000;21.242;2024-01-11T00:43:39;99723.03;;;22.76;31.64
57574;BME280;68988;49.000;21.242;2024-01-11T00:46:05;99714.06;;;22.70;31.63
57574;BME280;68988;49.000;21.242;2024-01-11T00:48:30;99704.78;;;22.73;31.89
57574;BME280;68988;49.000;21.242;2024-01-11T00:50:55;99703.16;;;22.71;31.77
57574;BME280;68988;49.000;21.242;2024-01-11T00:53:21;99693.03;;;22.74;31.87
57574;BME280;68988;49.000;21.242;2024-01-11T00:55:46;99693.63;;;22.76;31.56
57574;BME280;68988;49.000;21.242;2024-01-11T00:58:11;99699.06;;;22.81;31.58
57574;BME280;68988;49.000;21.242;2024-01-11T01:00:37;99688.84;;;22.78;31.59
57574;BME280;68988;49.000;21.242;2024-01-11T01:03:02;99685.59;;;22.76;31.71
57574;BME280;68988;49.000;21.242;2024-01-11T01:05:28;99688.75;;;22.73;31.74
57574;BME280;68988;49.000;21.242;2024-01-11T01:07:53;99680.72;;;22.73;31.85
57574;BME280;68988;49.000;21.242;2024-01-11T01:10:18;99680.13;;;22.70;31.74
57574;BME280;68988;49.000;21.242;2024-01-11T01:12:44;99673.16;;;22.69;31.73
57574;BME280;68988;49.000;21.242;2024-01-11T01:15:09;99670.50;;;22.69;31.86
57574;BME280;68988;49.000;21.242;2024-01-11T01:17:34;99672.09;;;22.70;31.62
57574;BME280;68988;49.000;21.242;2024-01-11T01:20:00;99656.06;;;22.70;31.59
57574;BME280;68988;49.000;21.242;2024-01-11T01:22:25;99652.00;;;22.68;31.61
57574;BME280;68988;49.000;21.242;2024-01-11T01:24:50;99647.56;;;22.74;31.38
57574;BME280;68988;49.000;21.242;2024-01-11T01:27:16;99646.53;;;22.75;31.41
57574;BME280;68988;49.000;21.242;2024-01-11T01:29:42;99645.13;;;22.72;31.52
57574;BME280;68988;49.000;21.242;2024-01-11T01:32:07;99637.09;;;22.72;31.49
57574;BME280;68988;49.000;21.242;2024-01-11T01:34:33;99646.38;;;22.81;31.55
57574;BME280;68988;49.000;21.242;2024-01-11T01:36:58;99646.91;;;22.66;31.48
57574;BME280;68988;49.000;21.242;2024-01-11T01:39:23;99650.59;;;22.65;31.76
57574;BME280;68988;49.000;21.242;2024-01-11T01:41:49;99642.91;;;22.69;31.66
57574;BME280;68988;49.000;21.242;2024-01-11T01:44:14;99652.34;;;22.71;31.56
57574;BME280;68988;49.000;21.242;2024-01-11T01:46:39;99647.38;;;22.63;31.55
57574;BME280;68988;49.000;21.242;2024-01-11T01:49:05;99647.22;;;22.70;31.59
57574;BME280;68988;49.000;21.242;2024-01-11T01:51:32;99642.13;;;22.68;31.40
57574;BME280;68988;49.000;21.242;2024-01-11T01:53:58;99653.38;;;22.70;31.47
57574;BME280;68988;49.000;21.242;2024-01-11T01:56:25;99660.38;;;22.71;31.43
57574;BME280;68988;49.000;21.242;2024-01-11T01:58:53;99657.69;;;22.71;31.46
57574;BME280;68988;49.000;21.242;2024-01-11T02:01:19;99658.06;;;22.63;31.52
57574;BME280;68988;49.000;21.242;2024-01-11T02:03:46;99653.38;;;22.70;31.43
57574;BME280;68988;49.000;21.242;2024-01-11T02:06:14;99648.03;;;22.70;31.34
57574;BME280;68988;49.000;21.242;2024-01-11T02:08:42;99645.97;;;22.73;31.58
57574;BME280;68988;49.000;21.242;2024-01-11T02:11:09;99641.66;;;22.71;31.33
57574;BME280;68988;49.000;21.242;2024-01-11T02:13:35;99649.56;;;22.66;31.40
57574;BME280;68988;49.000;21.242;2024-01-11T02:16:01;99650.59;;;22.65;31.48
57574;BME280;68988;49.000;21.242;2024-01-11T02:18:26;99655.03;;;22.71;31.43
57574;BME280;68988;49.000;21.242;2024-01-11T02:20:51;99652.56;;;22.70;31.55
57574;BME280;68988;49.000;21.242;2024-01-11T02:23:17;99646.19;;;22.71;31.46
57574;BME280;68988;49.000;21.242;2024-01-11T02:25:44;99647.00;;;22.71;31.32
57574;BME280;68988;49.000;21.242;2024-01-11T02:28:10;99641.09;;;22.69;31.31
57574;BME280;68988;49.000;21.242;2024-01-11T02:30:36;99640.00;;;22.70;31.47
57574;BME280;68988;49.000;21.242;2024-01-11T02:33:02;99640.94;;;22.64;31.55
57574;BME280;68988;49.000;21.242;2024-01-11T02:35:28;99637.25;;;22.65;31.55
57574;BME280;68988;49.000;21.242;2024-01-11T02:37:54;99631.88;;;22.65;31.28
57574;BME280;68988;49.000;21.242;2024-01-11T02:40:21;99636.78;;;22.68;31.24
57574;BME280;68988;49.000;21.242;2024-01-11T02:42:47;99636.78;;;22.68;31.28
57574;BME280;68988;49.000;21.242;2024-01-11T02:45:12;99636.31;;;22.71;31.09
57574;BME280;68988;49.000;21.242;2024-01-11T02:47:38;99636.78;;;22.68;31.15
57574;BME280;68988;49.000;21.242;2024-01-11T02:50:05;99640.72;;;22.66;31.38
57574;BME280;68988;49.000;21.242;2024-01-11T02:52:32;99634.31;;;22.67;31.40
57574;BME280;68988;49.000;21.242;2024-01-11T02:54:57;99641.19;;;22.75;31.28
57574;BME280;68988;49.000;21.242;2024-01-11T02:57:22;99632.59;;;22.73;31.23
57574;BME280;68988;49.000;21.242;2024-01-11T02:59:49;99622.00;;;22.66;31.30
57574;BME280;68988;49.000;21.242;2024-01-11T03:02:14;99619.00;;;22.62;31.18
57574;BME280;68988;49.000;21.242;2024-01-11T03:04:40;99611.66;;;22.69;31.36
57574;BME280;68988;49.000;21.242;2024-01-11T03:07:05;99619.56;;;22.64;31.07
57574;BME280;68988;49.000;21.242;2024-01-11T03:09:30;99621.91;;;22.61;31.20
57574;BME280;68988;49.000;21.242;2024-01-11T03:11:56;99617.97;;;22.63;31.20
57574;BME280;68988;49.000;21.242;2024-01-11T03:14:21;99617.47;;;22.66;31.05
57574;BME280;68988;49.000;21.242;2024-01-11T03:16:46;99614.81;;;22.66;31.23
57574;BME280;68988;49.000;21.242;2024-01-11T03:19:12;99610.28;;;22.67;31.24
57574;BME280;68988;49.000;21.242;2024-01-11T03:21:42;99612.94;;;22.67;31.25
57574;BME280;68988;49.000;21.242;2024-01-11T03:24:07;99612.59;;;22.63;31.35
57574;BME280;68988;49.000;21.242;2024-01-11T03:26:33;99615.03;;;22.65;31.07
57574;BME280;68988;49.000;21.242;2024-01-11T03:28:58;99606.19;;;22.64;31.11
57574;BME280;68988;49.000;21.242;2024-01-11T03:31:23;99609.69;;;22.65;31.25
57574;BME280;68988;49.000;21.242;2024-01-11T03:33:49;99592.03;;;22.64;31.29
57574;BME280;68988;49.000;21.242;2024-01-11T03:36:14;99591.22;;;22.63;31.13
57574;BME280;68988;49.000;21.242;2024-01-11T03:38:39;99593.19;;;22.68;31.11
57574;BME280;68988;49.000;21.242;2024-01-11T03:41:08;99595.88;;;22.68;31.16
57574;BME280;68988;49.000;21.242;2024-01-11T03:43:35;99592.50;;;22.61;31.13
57574;BME280;68988;49.000;21.242;2024-01-11T03:46:01;99583.78;;;22.65;31.05
57574;BME280;68988;49.000;21.242;2024-01-11T03:48:26;99583.28;;;22.68;31.16
57574;BME280;68988;49.000;21.242;2024-01-11T03:50:51;99568.66;;;22.59;31.32
57574;BME280;68988;49.000;21.242;2024-01-11T03:53:17;99577.84;;;22.63;31.08
57574;BME280;68988;49.000;21.242;2024-01-11T03:55:42;99581.09;;;22.65;30.91
57574;BME280;68988;49.000;21.242;2024-01-11T03:58:08;99575.50;;;22.67;31.10
57574;BME280;68988;49.000;21.242;2024-01-11T04:00:33;99581.09;;;22.65;31.00
57574;BME280;68988;49.000;21.242;2024-01-11T04:02:59;99577.63;;;22.65;31.07
57574;BME280;68988;49.000;21.242;2024-01-11T04:05:24;99578.88;;;22.62;31.16
57574;BME280;68988;49.000;21.242;2024-01-11T04:07:49;99573.88;;;22.66;30.94
57574;BME280;68988;49.000;21.242;2024-01-11T04:10:17;99583.44;;;22.62;31.07
57574;BME280;68988;49.000;21.242;2024-01-11T04:12:43;99586.91;;;22.62;31.01
57574;BME280;68988;49.000;21.242;2024-01-11T04:15:08;99594.69;;;22.64;31.14
57574;BME280;68988;49.000;21.242;2024-01-11T04:17:34;99587.84;;;22.68;30.89
57574;BME280;68988;49.000;21.242;2024-01-11T04:19:59;99593.44;;;22.66;31.08
57574;BME280;68988;49.000;21.242;2024-01-11T04:22:24;99594.94;;;22.62;31.08
57574;BME280;68988;49.000;21.242;2024-01-11T04:24:50;99593.28;;;22.61;30.99
57574;BME280;68988;49.000;21.242;2024-01-11T04:27:15;99593.91;;;22.63;31.06
57574;BME280;68988;49.000;21.242;2024-01-11T04:29:41;99597.84;;;22.61;30.93
57574;BME280;68988;49.000;21.242;2024-01-11T04:32:06;99593.66;;;22.65;30.99
57574;BME280;68988;49.000;21.242;2024-01-11T04:34:32;99590.06;;;22.59;31.04
57574;BME280;68988;49.000;21.242;2024-01-11T04:36:57;99592.97;;;22.58;31.09
57574;BME280;68988;49.000;21.242;2024-01-11T04:39:22;99586.22;;;22.55;30.97
57574;BME280;68988;49.000;21.242;2024-01-11T04:41:48;99588.53;;;22.63;30.99
57574;BME280;68988;49.000;21.242;2024-01-11T04:44:13;99569.84;;;22.63;30.92
57574;BME280;68988;49.000;21.242;2024-01-11T04:46:38;99570.31;;;22.60;30.80
57574;BME280;68988;49.000;21.242;2024-01-11T04:49:04;99573.06;;;22.65;31.04
57574;BME280;68988;49.000;21.242;2024-01-11T04:51:29;99571.69;;;22.63;31.03
57574;BME280;68988;49.000;21.242;2024-01-11T04:53:54;99569.25;;;22.61;31.06
57574;BME280;68988;49.000;21.242;2024-01-11T04:56:20;99561.81;;;22.63;30.73
57574;BME280;68988;49.000;21.242;2024-01-11T04:58:46;99559.72;;;22.65;30.94
57574;BME280;68988;49.000;21.242;2024-01-11T05:01:12;99569.59;;;22.65;30.93
57574;BME280;68988;49.000;21.242;2024-01-11T05:03:38;99562.84;;;22.62;30.97
57574;BME280;68988;49.000;21.242;2024-01-11T05:06:03;99555.88;;;22.61;30.80
57574;BME280;68988;49.000;21.242;2024-01-11T05:08:29;99541.47;;;22.62;30.86
57574;BME280;68988;49.000;21.242;2024-01-11T05:10:55;99554.59;;;22.64;30.92
57574;BME280;68988;49.000;21.242;2024-01-11T05:13:20;99571.69;;;22.63;30.94
57574;BME280;68988;49.000;21.242;2024-01-11T05:15:46;99564.81;;;22.67;30.86
57574;BME280;68988;49.000;21.242;2024-01-11T05:18:12;99566.22;;;22.69;30.71
57574;BME280;68988;49.000;21.242;2024-01-11T05:20:38;99564.81;;;22.79;30.61
57574;BME280;68988;49.000;21.242;2024-01-11T05:23:03;99567.66;;;22.89;30.50
57574;BME280;68988;49.000;21.242;2024-01-11T05:25:30;99574.38;;;23.03;30.22
57574;BME280;68988;49.000;21.242;2024-01-11T05:28:01;99571.22;;;23.06;30.25
57574;BME280;68988;49.000;21.242;2024-01-11T05:30:27;99556.94;;;23.13;30.12
57574;BME280;68988;49.000;21.242;2024-01-11T05:32:53;99554.81;;;23.15;30.25
57574;BME280;68988;49.000;21.242;2024-01-11T05:35:18;99540.63;;;23.14;30.24
57574;BME280;68988;49.000;21.242;2024-01-11T05:37:44;99537.72;;;23.16;30.33
57574;BME280;68988;49.000;21.242;2024-01-11T05:40:09;99532.38;;;23.16;30.13
57574;BME280;68988;49.000;21.242;2024-01-11T05:42:35;99521.75;;;23.21;30.09
57574;BME280;68988;49.000;21.242;2024-01-11T05:45:00;99508.94;;;23.23;30.05
57574;BME280;68988;49.000;21.242;2024-01-11T05:47:25;99511.53;;;23.18;30.06
57574;BME280;68988;49.000;21.242;2024-01-11T05:49:51;99519.06;;;23.21;30.12
57574;BME280;68988;49.000;21.242;2024-01-11T05:52:16;99508.13;;;23.22;30.09
57574;BME280;68988;49.000;21.242;2024-01-11T05:54:41;99496.88;;;23.20;29.77
57574;BME280;68988;49.000;21.242;2024-01-11T05:57:07;99493.34;;;23.20;30.09
57574;BME280;68988;49.000;21.242;2024-01-11T05:59:32;99491.63;;;14.77;23.93
57574;BME280;68988;49.000;21.242;2024-01-11T06:01:58;99499.75;;;9.41;28.03
57574;BME280;68988;49.000;21.242;2024-01-11T06:04:26;99497.03;;;8.69;27.69
57574;BME280;68988;49.000;21.242;2024-01-11T06:06:51;99500.50;;;12.14;33.13
57574;BME280;68988;49.000;21.242;2024-01-11T06:09:17;99479.66;;;15.39;32.15
57574;BME280;68988;49.000;21.242;2024-01-11T06:11:42;99487.41;;;17.42;29.66
57574;BME280;68988;49.000;21.242;2024-01-11T06:14:07;99469.66;;;18.68;28.18
57574;BME280;68988;49.000;21.242;2024-01-11T06:16:33;99472.53;;;19.62;27.25
57574;BME280;68988;49.000;21.242;2024-01-11T06:18:58;99483.00;;;20.26;26.46
57574;BME280;68988;49.000;21.242;2024-01-11T06:21:24;99472.19;;;20.77;26.35
57574;BME280;68988;49.000;21.242;2024-01-11T06:23:49;99469.47;;;20.95;26.18
57574;BME280;68988;49.000;21.242;2024-01-11T06:26:14;99476.13;;;21.16;26.11
57574;BME280;68988;49.000;21.242;2024-01-11T06:28:40;99477.56;;;21.31;26.13
57574;BME280;68988;49.000;21.242;2024-01-11T06:31:05;99474.69;;;21.44;26.08
57574;BME280;68988;49.000;21.242;2024-01-11T06:33:31;99466.03;;;21.60;26.34
57574;BME280;68988;49.000;21.242;2024-01-11T06:35:58;99474.75;;;21.68;26.38
57574;BME280;68988;49.000;21.242;2024-01-11T06:38:23;99457.44;;;21.82;26.42
57574;BME280;68988;49.000;21.242;2024-01-11T06:40:48;99468.84;;;21.89;26.54
57574;BME280;68988;49.000;21.242;2024-01-11T06:43:14;99462.44;;;22.02;26.57
57574;BME280;68988;49.000;21.242;2024-01-11T06:45:42;99461.97;;;22.05;26.72
57574;BME280;68988;49.000;21.242;2024-01-11T06:48:07;99459.59;;;22.21;26.98
57574;BME280;68988;49.000;21.242;2024-01-11T06:50:33;99453.69;;;22.30;26.76
57574;BME280;68988;49.000;21.242;2024-01-11T06:52:59;99444.84;;;22.42;27.16
57574;BME280;68988;49.000;21.242;2024-01-11T06:55:24;99435.16;;;22.52;27.26
57574;BME280;68988;49.000;21.242;2024-01-11T06:57:49;99432.59;;;22.58;27.36
57574;BME280;68988;49.000;21.242;2024-01-11T07:00:15;99434.53;;;22.62;27.33
57574;BME280;68988;49.000;21.242;2024-01-11T07:02:41;99433.09;;;22.71;27.57
57574;BME280;68988;49.000;21.242;2024-01-11T07:05:06;99434.75;;;22.73;27.74
57574;BME280;68988;49.000;21.242;2024-01-11T07:07:33;99441.00;;;22.95;27.99
57574;BME280;68988;49.000;21.242;2024-01-11T07:09:58;99439.16;;;22.96;28.05
57574;BME280;68988;49.000;21.242;2024-01-11T07:12:24;99437.69;;;22.88;28.17
57574;BME280;68988;49.000;21.242;2024-01-11T07:14:50;99432.34;;;22.88;28.36
57574;BME280;68988;49.000;21.242;2024-01-11T07:17:16;99440.75;;;22.97;28.29
57574;BME280;68988;49.000;21.242;2024-01-11T07:19:42;99439.47;;;22.99;28.44
57574;BME280;68988;49.000;21.242;2024-01-11T07:22:07;99435.53;;;23.02;28.38
57574;BME280;68988;49.000;21.242;2024-01-11T07:24:32;99418.75;;;23.06;28.30
57574;BME280;68988;49.000;21.242;2024-01-11T07:27:04;99412.94;;;23.10;28.54
57574;BME280;68988;49.000;21.242;2024-01-11T07:29:29;99418.78;;;23.23;28.33
57574;BME280;68988;49.000;21.242;2024-01-11T07:31:55;99424.94;;;23.24;28.36
57574;BME280;68988;49.000;21.242;2024-01-11T07:34:20;99425.97;;;23.23;28.74
57574;BME280;68988;49.000;21.242;2024-01-11T07:36:45;99409.84;;;23.35;28.75
57574;BME280;68988;49.000;21.242;2024-01-11T07:39:11;99405.28;;;23.35;29.12
57574;BME280;68988;49.000;21.242;2024-01-11T07:41:36;99399.31;;;23.28;29.10
57574;BME280;68988;49.000;21.242;2024-01-11T07:44:01;99391.59;;;23.32;28.92
57574;BME280;68988;49.000;21.242;2024-01-11T07:46:27;99383.09;;;23.35;28.84
57574;BME280;68988;49.000;21.242;2024-01-11T07:48:52;99389.25;;;23.35;28.93
57574;BME280;68988;49.000;21.242;2024-01-11T07:51:17;99385.53;;;23.36;28.82
57574;BME280;68988;49.000;21.242;2024-01-11T07:53:44;99394.94;;;23.39;28.87
57574;BME280;68988;49.000;21.242;2024-01-11T07:56:10;99408.56;;;23.37;28.74
57574;BME280;68988;49.000;21.242;2024-01-11T07:58:35;99389.59;;;23.39;28.70
57574;BME280;68988;49.000;21.242;2024-01-11T08:01:03;99388.25;;;23.41;28.75
57574;BME280;68988;49.000;21.242;2024-01-11T08:03:29;99369.78;;;23.40;28.74
57574;BME280;68988;49.000;21.242;2024-01-11T08:05:55;99370.66;;;23.46;28.63
57574;BME280;68988;49.000;21.242;2024-01-11T08:08:20;99365.88;;;23.48;28.76
57574;BME280;68988;49.000;21.242;2024-01-11T08:10:47;99363.44;;;23.46;28.57
57574;BME280;68988;49.000;21.242;2024-01-11T08:13:13;99363.28;;;23.53;28.62
57574;BME280;68988;49.000;21.242;2024-01-11T08:15:39;99354.16;;;23.54;28.92
57574;BME280;68988;49.000;21.242;2024-01-11T08:18:04;99343.97;;;23.51;28.89
57574;BME280;68988;49.000;21.242;2024-01-11T08:20:30;99350.16;;;23.51;29.09
57574;BME280;68988;49.000;21.242;2024-01-11T08:22:55;99337.00;;;23.50;29.21
57574;BME280;68988;49.000;21.242;2024-01-11T08:25:21;99329.28;;;23.53;29.28
57574;BME280;68988;49.000;21.242;2024-01-11T08:27:48;99316.19;;;23.57;29.34
57574;BME280;68988;49.000;21.242;2024-01-11T08:30:13;99311.34;;;23.54;29.51
57574;BME280;68988;49.000;21.242;2024-01-11T08:32:39;99309.00;;;23.57;29.76
57574;BME280;68988;49.000;21.242;2024-01-11T08:35:08;99307.75;;;23.65;29.54
57574;BME280;68988;49.000;21.242;2024-01-11T08:37:35;99315.53;;;23.67;29.61
57574;BME280;68988;49.000;21.242;2024-01-11T08:40:00;99321.19;;;23.70;29.58
57574;BME280;68988;49.000;21.242;2024-01-11T08:42:26;99320.66;;;23.68;29.77
57574;BME280;68988;49.000;21.242;2024-01-11T08:44:51;99313.97;;;23.71;29.71
57574;BME280;68988;49.000;21.242;2024-01-11T08:47:17;99316.63;;;23.71;29.83
57574;BME280;68988;49.000;21.242;2024-01-11T08:49:42;99330.13;;;23.76;29.79
57574;BME280;68988;49.000;21.242;2024-01-11T08:52:08;99329.88;;;23.77;29.70
57574;BME280;68988;49.000;21.242;2024-01-11T08:54:34;99328.78;;;23.78;29.94
57574;BME280;68988;49.000;21.242;2024-01-11T08:56:59;99329.44;;;23.86;29.78
57574;BME280;68988;49.000;21.242;2024-01-11T08:59:25;99339.00;;;23.82;29.83
57574;BME280;68988;49.000;21.242;2024-01-11T09:01:51;99340.97;;;23.86;29.95
57574;BME280;68988;49.000;21.242;2024-01-11T09:04:17;99343.88;;;23.85;29.76
57574;BME280;68988;49.000;21.242;2024-01-11T09:06:43;99329.91;;;23.83;29.88
57574;BME280;68988;49.000;21.242;2024-01-11T09:09:08;99310.19;;;23.67;29.87
57574;BME280;68988;49.000;21.242;2024-01-11T09:11:36;99323.91;;;23.31;26.07
57574;BME280;68988;49.000;21.242;2024-01-11T09:14:01;99312.94;;;23.33;27.07
57574;BME280;68988;49.000;21.242;2024-01-11T09:16:28;99326.94;;;23.40;27.70
57574;BME280;68988;49.000;21.242;2024-01-11T09:18:54;99333.00;;;23.52;27.22
57574;BME280;68988;49.000;21.242;2024-01-11T09:21:19;99322.03;;;23.54;27.38
57574;BME280;68988;49.000;21.242;2024-01-11T09:23:45;99327.41;;;23.54;27.67
57574;BME280;68988;49.000;21.242;2024-01-11T09:26:10;99333.94;;;23.63;27.85
57574;BME280;68988;49.000;21.242;2024-01-11T09:28:35;99339.88;;;23.65;28.00
57574;BME280;68988;49.000;21.242;2024-01-11T09:31:01;99328.69;;;23.68;28.09
57574;BME280;68988;49.000;21.242;2024-01-11T09:33:27;99329.28;;;23.75;28.01
57574;BME280;68988;49.000;21.242;2024-01-11T09:35:54;99313.94;;;23.88;28.32
57574;BME280;68988;49.000;21.242;2024-01-11T09:38:21;99309.78;;;23.80;28.34
57574;BME280;68988;49.000;21.242;2024-01-11T09:41:12;99315.56;;;23.89;28.39
57574;BME280;68988;49.000;21.242;2024-01-11T09:43:37;99308.03;;;23.86;28.91
57574;BME280;68988;49.000;21.242;2024-01-11T09:46:04;99298.75;;;23.93;28.78
57574;BME280;68988;49.000;21.242;2024-01-11T09:48:37;99298.75;;;23.93;28.68
57574;BME280;68988;49.000;21.242;2024-01-11T09:51:03;99311.88;;;23.95;28.98
57574;BME280;68988;49.000;21.242;2024-01-11T09:53:33;99309.75;;;23.97;29.01
57574;BME280;68988;49.000;21.242;2024-01-11T09:56:00;99301.66;;;23.92;29.15
57574;BME280;68988;49.000;21.242;2024-01-11T09:58:26;99299.66;;;24.04;29.08
57574;BME280;68988;49.000;21.242;2024-01-11T10:00:55;99296.09;;;23.99;29.30
57574;BME280;68988;49.000;21.242;2024-01-11T10:03:24;99291.63;;;24.04;29.47
57574;BME280;68988;49.000;21.242;2024-01-11T10:05:54;99283.03;;;24.02;29.39
57574;BME280;68988;49.000;21.242;2024-01-11T10:08:22;99278.72;;;24.01;29.58
57574;BME280;68988;49.000;21.242;2024-01-11T10:10:48;99262.66;;;24.01;29.50
57574;BME280;68988;49.000;21.242;2024-01-11T10:13:14;99269.38;;;24.04;29.77
57574;BME280;68988;49.000;21.242;2024-01-11T10:15:39;99257.91;;;24.08;29.70
57574;BME280;68988;49.000;21.242;2024-01-11T10:18:05;99254.06;;;23.99;29.56
57574;BME280;68988;49.000;21.242;2024-01-11T10:20:32;99249.50;;;24.00;29.43
57574;BME280;68988;49.000;21.242;2024-01-11T10:22:58;99243.88;;;23.96;29.80
57574;BME280;68988;49.000;21.242;2024-01-11T10:25:24;99238.50;;;23.96;29.80
57574;BME280;68988;49.000;21.242;2024-01-11T10:27:49;99226.19;;;24.00;29.79
57574;BME280;68988;49.000;21.242;2024-01-11T10:30:17;99205.88;;;24.04;29.85
57574;BME280;68988;49.000;21.242;2024-01-11T10:32:46;99212.38;;;24.08;29.83
57574;BME280;68988;49.000;21.242;2024-01-11T10:35:12;99213.53;;;24.18;30.05
57574;BME280;68988;49.000;21.242;2024-01-11T10:37:38;99205.22;;;24.19;30.50
57574;BME280;68988;49.000;21.242;2024-01-11T10:40:08;99209.25;;;24.22;30.08
57574;BME280;68988;49.000;21.242;2024-01-11T10:42:51;99196.63;;;24.17;30.07
57574;BME280;68988;49.000;21.242;2024-01-11T10:45:18;99209.97;;;24.12;30.46
57574;BME280;68988;49.000;21.242;2024-01-11T10:47:54;99210.50;;;24.09;30.34
57574;BME280;68988;49.000;21.242;2024-01-11T10:50:22;99213.94;;;24.04;30.47
57574;BME280;68988;49.000;21.242;2024-01-11T10:53:03;99206.16;;;24.03;30.64
57574;BME280;68988;49.000;21.242;2024-01-11T10:55:33;99212.81;;;24.00;30.59
57574;BME280;68988;49.000;21.242;2024-01-11T10:58:00;99217.66;;;24.03;30.83
57574;BME280;68988;49.000;21.242;2024-01-11T11:00:27;99221.97;;;24.04;31.02
57574;BME280;68988;49.000;21.242;2024-01-11T11:02:54;99210.13;;;24.00;30.90
57574;BME280;68988;49.000;21.242;2024-01-11T11:05:21;99213.13;;;24.04;31.04
57574;BME280;68988;49.000;21.242;2024-01-11T11:07:49;99205.59;;;24.01;31.08
57574;BME280;68988;49.000;21.242;2024-01-11T11:10:16;99195.13;;;23.99;31.36
57574;BME280;68988;49.000;21.242;2024-01-11T11:12:44;99183.66;;;24.04;31.08
57574;BME280;68988;49.000;21.242;2024-01-11T11:15:11;99188.16;;;23.98;31.21
57574;BME280;68988;49.000;21.242;2024-01-11T11:17:38;99168.28;;;23.94;31.46
57574;BME280;68988;49.000;21.242;2024-01-11T11:20:06;99152.47;;;23.92;31.47
57574;BME280;68988;49.000;21.242;2024-01-11T11:22:36;99153.81;;;23.90;31.60
57574;BME280;68988;49.000;21.242;2024-01-11T11:25:10;99162.41;;;23.97;31.42
57574;BME280;68988;49.000;21.242;2024-01-11T11:27:36;99141.81;;;23.98;31.32
57574;BME280;68988;49.000;21.242;2024-01-11T11:30:05;99147.94;;;23.93;31.34
57574;BME280;68988;49.000;21.242;2024-01-11T11:32:37;99127.56;;;23.92;31.55
57574;BME280;68988;49.000;21.242;2024-01-11T11:35:06;99121.59;;;23.85;31.65
57574;BME280;68988;49.000;21.242;2024-01-11T11:37:36;99132.38;;;23.90;31.55
57574;BME280;68988;49.000;21.242;2024-01-11T11:40:02;99135.34;;;23.93;31.76
57574;BME280;68988;49.000;21.242;2024-01-11T11:42:30;99102.34;;;23.88;32.12
57574;BME280;68988;49.000;21.242;2024-01-11T11:44:55;99113.88;;;23.88;32.04
57574;BME280;68988;49.000;21.242;2024-01-11T11:47:23;99111.19;;;23.88;32.23
57574;BME280;68988;49.000;21.242;2024-01-11T11:50:04;99098.09;;;23.92;32.60
57574;BME280;68988;49.000;21.242;2024-01-11T11:52:33;99090.88;;;23.92;32.33
57574;BME280;68988;49.000;21.242;2024-01-11T11:55:00;99095.69;;;23.90;32.40
57574;BME280;68988;49.000;21.242;2024-01-11T11:57:27;99080.91;;;23.88;32.46
57574;BME280;68988;49.000;21.242;2024-01-11T11:59:55;99072.94;;;23.93;32.42
57574;BME280;68988;49.000;21.242;2024-01-11T12:02:22;99061.91;;;23.89;32.62
57574;BME280;68988;49.000;21.242;2024-01-11T12:04:48;99064.97;;;24.03;32.69
57574;BME280;68988;49.000;21.242;2024-01-11T12:07:14;99070.53;;;23.91;32.77
57574;BME280;68988;49.000;21.242;2024-01-11T12:09:40;99059.28;;;23.94;32.91
57574;BME280;68988;49.000;21.242;2024-01-11T12:12:06;99057.41;;;23.95;32.86
57574;BME280;68988;49.000;21.242;2024-01-11T12:14:31;99047.25;;;23.97;32.83
57574;BME280;68988;49.000;21.242;2024-01-11T12:16:58;99049.38;;;23.95;32.80
57574;BME280;68988;49.000;21.242;2024-01-11T12:19:27;99057.66;;;23.93;33.11
57574;BME280;68988;49.000;21.242;2024-01-11T12:21:53;99042.41;;;23.94;33.16
57574;BME280;68988;49.000;21.242;2024-01-11T12:24:20;99034.94;;;23.96;33.11
57574;BME280;68988;49.000;21.242;2024-01-11T12:26:47;99027.44;;;23.98;33.06
57574;BME280;68988;49.000;21.242;2024-01-11T12:29:13;99024.78;;;24.03;32.82
57574;BME280;68988;49.000;21.242;2024-01-11T12:31:39;99016.44;;;23.94;33.22
57574;BME280;68988;49.000;21.242;2024-01-11T12:34:05;99023.44;;;24.01;33.12
57574;BME280;68988;49.000;21.242;2024-01-11T12:36:31;99033.06;;;24.02;33.07
57574;BME280;68988;49.000;21.242;2024-01-11T12:38:58;99010.84;;;24.01;33.20
57574;BME280;68988;49.000;21.242;2024-01-11T12:41:24;98995.81;;;24.00;33.11
57574;BME280;68988;49.000;21.242;2024-01-11T12:43:49;99002.22;;;23.94;33.05
57574;BME280;68988;49.000;21.242;2024-01-11T12:46:15;99007.31;;;23.95;33.34